sensor_id;sensor_type;location;lat;lon;timestamp;pressure;altitude;pressure_sealevel;temperature;humidity
12146;BME280;6136;47.032;15.398;2023-05-23T00:01:12;97255.72;;;14.29;100.00
12146;BME280;6136;47.032;15.398;2023-05-23T00:03:42;97247.94;;;14.26;100.00
12146;BME280;6136;47.032;15.398;2023-05-23T00:06:11;97244.31;;;14.27;100.00
12146;BME280;6136;47.032;15.398;2023-05-23T00:08:40;97245.28;;;14.26;100.00
12146;BME280;6136;47.032;15.398;2023-05-23T00:11:10;97244.44;;;14.26;100.00
12146;BME280;6136;47.032;15.398;2023-05-23T00:13:39;97240.56;;;14.30;100.00
12146;BME280;6136;47.032;15.398;2023-05-23T00:16:08;97234.63;;;14.26;100.00
12146;BME280;6136;47.032;15.398;2023-05-23T00:18:36;97240.19;;;14.23;100.00
12146;BME280;6136;47.032;15.398;2023-05-23T00:21:05;97243.00;;;14.22;100.00
12146;BME280;6136;47.032;15.398;2023-05-23T00:23:35;97246.38;;;14.24;100.00
12146;BME280;6136;47.032;15.398;2023-05-23T00:26:04;97247.50;;;14.21;100.00
12146;BME280;6136;47.032;15.398;2023-05-23T00:28:33;97242.41;;;14.18;100.00
12146;BME280;6136;47.032;15.398;2023-05-23T00:31:02;97243.25;;;14.19;100.00
12146;BME280;6136;47.032;15.398;2023-05-23T00:33:30;97252.09;;;14.19;100.00
12146;BME280;6136;47.032;15.398;2023-05-23T00:36:01;97251.34;;;14.17;100.00
12146;BME280;6136;47.032;15.398;2023-05-23T00:38:29;97249.66;;;14.16;100.00
12146;BME280;6136;47.032;15.398;2023-05-23T00:40:57;97247.38;;;14.12;100.00
12146;BME280;6136;47.032;15.398;2023-05-23T00:43:26;97241.94;;;14.13;100.00
12146;BME280;6136;47.032;15.398;2023-05-23T00:45:56;97239.50;;;14.10;100.00
12146;BME280;6136;47.032;15.398;2023-05-23T00:48:25;97237.97;;;14.08;100.00
12146;BME280;6136;47.032;15.398;2023-05-23T00:50:54;97233.00;;;14.03;100.00
12146;BME280;6136;47.032;15.398;2023-05-23T00:53:23;97242.56;;;14.06;100.00
12146;BME280;6136;47.032;15.398;2023-05-23T00:55:51;97237.75;;;13.99;100.00
12146;BME280;6136;47.032;15.398;2023-05-23T00:58:20;97245.13;;;13.96;100.00
12146;BME280;6136;47.032;15.398;2023-05-23T01:00:48;97241.97;;;13.91;100.00
12146;BME280;6136;47.032;15.398;2023-05-23T01:03:21;97243.91;;;13.89;100.00
12146;BME280;6136;47.032;15.398;2023-05-23T01:05:54;97239.56;;;13.88;100.00
12146;BME280;6136;47.032;15.398;2023-05-23T01:08:23;97250.72;;;13.82;100.00
12146;BME280;6136;47.032;15.398;2023-05-23T01:10:51;97248.28;;;13.79;100.00
12146;BME280;6136;47.032;15.398;2023-05-23T01:13:28;97237.88;;;13.76;100.00
12146;BME280;6136;47.032;15.398;2023-05-23T01:16:04;97243.56;;;13.71;100.00
12146;BME280;6136;47.032;15.398;2023-05-23T01:18:37;97241.06;;;13.70;100.00
12146;BME280;6136;47.032;15.398;2023-05-23T01:21:10;97236.81;;;13.67;100.00
12146;BME280;6136;47.032;15.398;2023-05-23T01:27:00;97236.34;;;13.62;100.00
12146;BME280;6136;47.032;15.398;2023-05-23T01:29:32;97233.78;;;13.60;100.00
12146;BME280;6136;47.032;15.398;2023-05-23T01:32:02;97232.22;;;13.58;100.00
12146;BME280;6136;47.032;15.398;2023-05-23T01:34:34;97224.59;;;13.53;100.00
12146;BME280;6136;47.032;15.398;2023-05-23T01:37:07;97218.91;;;13.47;100.00
12146;BME280;6136;47.032;15.398;2023-05-23T01:39:37;97225.78;;;13.49;100.00
12146;BME280;6136;47.032;15.398;2023-05-23T01:42:06;97224.25;;;13.47;100.00
12146;BME280;6136;47.032;15.398;2023-05-23T01:44:37;97226.28;;;13.43;100.00
12146;BME280;6136;47.032;15.398;2023-05-23T01:47:07;97229.22;;;13.40;100.00
12146;BME280;6136;47.032;15.398;2023-05-23T01:49:36;97229.44;;;13.37;100.00
12146;BME280;6136;47.032;15.398;2023-05-23T01:52:06;97214.19;;;13.28;100.00
12146;BME280;6136;47.032;15.398;2023-05-23T01:54:37;97213.09;;;13.31;100.00
12146;BME280;6136;47.032;15.398;2023-05-23T01:57:09;97217.56;;;13.30;100.00
12146;BME280;6136;47.032;15.398;2023-05-23T01:59:39;97224.81;;;13.28;100.00
12146;BME280;6136;47.032;15.398;2023-05-23T02:02:07;97211.41;;;13.18;100.00
12146;BME280;6136;47.032;15.398;2023-05-23T02:04:36;97218.06;;;13.24;100.00
12146;BME280;6136;47.032;15.398;2023-05-23T02:07:04;97208.03;;;13.16;100.00
12146;BME280;6136;47.032;15.398;2023-05-23T02:09:33;97215.38;;;13.13;100.00
12146;BME280;6136;47.032;15.398;2023-05-23T02:12:01;97219.63;;;13.15;100.00
12146;BME280;6136;47.032;15.398;2023-05-23T02:14:29;97211.75;;;13.14;100.00
12146;BME280;6136;47.032;15.398;2023-05-23T02:16:59;97216.56;;;13.09;100.00
12146;BME280;6136;47.032;15.398;2023-05-23T02:19:27;97210.50;;;13.07;100.00
12146;BME280;6136;47.032;15.398;2023-05-23T02:21:55;97214.63;;;13.00;100.00
12146;BME280;6136;47.032;15.398;2023-05-23T02:24:23;97213.03;;;12.97;100.00
12146;BME280;6136;47.032;15.398;2023-05-23T02:26:52;97213.03;;;12.97;100.00
12146;BME280;6136;47.032;15.398;2023-05-23T02:29:20;97214.88;;;12.97;100.00
12146;BME280;6136;47.032;15.398;2023-05-23T02:31:48;97195.84;;;12.90;100.00
12146;BME280;6136;47.032;15.398;2023-05-23T02:34:18;97211.22;;;12.98;100.00
12146;BME280;6136;47.032;15.398;2023-05-23T02:36:46;97204.34;;;12.95;100.00
12146;BME280;6136;47.032;15.398;2023-05-23T02:39:14;97196.69;;;12.91;100.00
12146;BME280;6136;47.032;15.398;2023-05-23T02:41:44;97192.59;;;12.87;100.00
12146;BME280;6136;47.032;15.398;2023-05-23T02:44:12;97199.84;;;12.84;100.00
12146;BME280;6136;47.032;15.398;2023-05-23T02:46:40;97189.47;;;12.81;100.00
12146;BME280;6136;47.032;15.398;2023-05-23T02:49:09;97188.47;;;12.82;100.00
12146;BME280;6136;47.032;15.398;2023-05-23T02:51:38;97193.69;;;12.84;100.00
12146;BME280;6136;47.032;15.398;2023-05-23T02:54:06;97188.47;;;12.82;100.00
12146;BME280;6136;47.032;15.398;2023-05-23T02:56:36;97186.06;;;12.79;100.00
12146;BME280;6136;47.032;15.398;2023-05-23T02:59:04;97179.78;;;12.80;100.00
12146;BME280;6136;47.032;15.398;2023-05-23T03:01:33;97185.34;;;12.77;100.00
12146;BME280;6136;47.032;15.398;2023-05-23T03:04:01;97186.53;;;12.73;100.00
12146;BME280;6136;47.032;15.398;2023-05-23T03:06:30;97184.72;;;12.74;100.00
12146;BME280;6136;47.032;15.398;2023-05-23T03:09:01;97187.63;;;12.71;100.00
12146;BME280;6136;47.032;15.398;2023-05-23T03:11:30;97183.16;;;12.71;100.00
12146;BME280;6136;47.032;15.398;2023-05-23T03:13:58;97183.03;;;12.73;100.00
12146;BME280;6136;47.032;15.398;2023-05-23T03:16:27;97182.53;;;12.68;100.00
12146;BME280;6136;47.032;15.398;2023-05-23T03:18:55;97187.72;;;12.69;100.00
12146;BME280;6136;47.032;15.398;2023-05-23T03:21:23;97189.53;;;12.69;100.00
12146;BME280;6136;47.032;15.398;2023-05-23T03:23:52;97186.16;;;12.67;100.00
12146;BME280;6136;47.032;15.398;2023-05-23T03:26:22;97181.19;;;12.62;100.00
12146;BME280;6136;47.032;15.398;2023-05-23T03:28:51;97189.78;;;12.66;100.00
12146;BME280;6136;47.032;15.398;2023-05-23T03:31:19;97174.91;;;12.63;100.00
12146;BME280;6136;47.032;15.398;2023-05-23T03:33:47;97185.53;;;12.63;100.00
12146;BME280;6136;47.032;15.398;2023-05-23T03:36:16;97187.25;;;12.64;100.00
12146;BME280;6136;47.032;15.398;2023-05-23T03:38:44;97190.63;;;12.66;100.00
12146;BME280;6136;47.032;15.398;2023-05-23T03:41:13;97191.34;;;12.68;100.00
12146;BME280;6136;47.032;15.398;2023-05-23T03:43:44;97186.75;;;12.70;100.00
12146;BME280;6136;47.032;15.398;2023-05-23T03:46:12;97179.63;;;12.71;100.00
12146;BME280;6136;47.032;15.398;2023-05-23T03:48:41;97191.38;;;12.79;100.00
12146;BME280;6136;47.032;15.398;2023-05-23T03:51:09;97185.22;;;12.79;100.00
12146;BME280;6136;47.032;15.398;2023-05-23T03:53:40;97185.69;;;12.73;100.00
12146;BME280;6136;47.032;15.398;2023-05-23T03:56:08;97198.63;;;12.77;100.00
12146;BME280;6136;47.032;15.398;2023-05-23T03:58:37;97200.09;;;12.81;100.00
12146;BME280;6136;47.032;15.398;2023-05-23T04:01:12;97190.16;;;12.83;100.00
12146;BME280;6136;47.032;15.398;2023-05-23T04:03:40;97198.03;;;12.85;100.00
12146;BME280;6136;47.032;15.398;2023-05-23T04:06:09;97202.16;;;12.89;100.00
12146;BME280;6136;47.032;15.398;2023-05-23T04:08:42;97213.19;;;12.96;100.00
12146;BME280;6136;47.032;15.398;2023-05-23T04:11:11;97201.44;;;12.98;100.00
12146;BME280;6136;47.032;15.398;2023-05-23T04:13:40;97193.09;;;13.03;100.00
12146;BME280;6136;47.032;15.398;2023-05-23T04:16:09;97204.75;;;13.13;100.00
12146;BME280;6136;47.032;15.398;2023-05-23T04:18:39;97191.09;;;13.17;100.00
12146;BME280;6136;47.032;15.398;2023-05-23T04:21:09;97208.88;;;13.28;100.00
12146;BME280;6136;47.032;15.398;2023-05-23T04:23:45;97195.81;;;13.36;100.00
12146;BME280;6136;47.032;15.398;2023-05-23T04:26:13;97207.16;;;13.49;100.00
12146;BME280;6136;47.032;15.398;2023-05-23T04:28:47;97197.97;;;13.53;100.00
12146;BME280;6136;47.032;15.398;2023-05-23T04:31:15;97200.13;;;13.59;100.00
12146;BME280;6136;47.032;15.398;2023-05-23T04:33:46;97198.56;;;13.68;100.00
12146;BME280;6136;47.032;15.398;2023-05-23T04:36:17;97193.34;;;13.78;100.00
12146;BME280;6136;47.032;15.398;2023-05-23T04:38:50;97194.66;;;13.83;100.00
12146;BME280;6136;47.032;15.398;2023-05-23T04:41:19;97193.06;;;13.92;100.00
12146;BME280;6136;47.032;15.398;2023-05-23T04:44:21;97197.38;;;14.04;100.00
12146;BME280;6136;47.032;15.398;2023-05-23T04:47:02;97193.25;;;14.11;100.00
12146;BME280;6136;47.032;15.398;2023-05-23T04:49:47;97194.19;;;14.21;100.00
12146;BME280;6136;47.032;15.398;2023-05-23T04:52:15;97191.75;;;14.29;100.00
12146;BME280;6136;47.032;15.398;2023-05-23T04:54:45;97194.47;;;14.50;100.00
12146;BME280;6136;47.032;15.398;2023-05-23T04:57:14;97191.16;;;14.58;100.00
12146;BME280;6136;47.032;15.398;2023-05-23T04:59:42;97187.88;;;14.75;100.00
12146;BME280;6136;47.032;15.398;2023-05-23T05:02:12;97199.72;;;14.82;100.00
12146;BME280;6136;47.032;15.398;2023-05-23T05:04:40;97197.25;;;14.90;100.00
12146;BME280;6136;47.032;15.398;2023-05-23T05:07:10;97194.53;;;15.01;100.00
12146;BME280;6136;47.032;15.398;2023-05-23T05:09:39;97193.72;;;15.10;100.00
12146;BME280;6136;47.032;15.398;2023-05-23T05:12:09;97189.41;;;15.19;100.00
12146;BME280;6136;47.032;15.398;2023-05-23T05:14:38;97193.69;;;15.31;100.00
12146;BME280;6136;47.032;15.398;2023-05-23T05:17:07;97192.59;;;15.43;100.00
12146;BME280;6136;47.032;15.398;2023-05-23T05:19:49;97184.66;;;15.53;100.00
12146;BME280;6136;47.032;15.398;2023-05-23T05:22:18;97184.84;;;15.61;100.00
12146;BME280;6136;47.032;15.398;2023-05-23T05:24:47;97188.53;;;15.79;100.00
12146;BME280;6136;47.032;15.398;2023-05-23T05:27:15;97180.00;;;15.85;100.00
12146;BME280;6136;47.032;15.398;2023-05-23T05:29:43;97180.56;;;15.99;100.00
12146;BME280;6136;47.032;15.398;2023-05-23T05:32:11;97175.81;;;16.12;100.00
12146;BME280;6136;47.032;15.398;2023-05-23T05:34:40;97174.69;;;16.24;100.00
12146;BME280;6136;47.032;15.398;2023-05-23T05:37:09;97174.25;;;16.38;100.00
12146;BME280;6136;47.032;15.398;2023-05-23T05:39:42;97167.94;;;16.49;100.00
12146;BME280;6136;47.032;15.398;2023-05-23T05:42:10;97175.56;;;16.63;100.00
12146;BME280;6136;47.032;15.398;2023-05-23T05:44:39;97171.59;;;16.77;100.00
12146;BME280;6136;47.032;15.398;2023-05-23T05:47:07;97175.38;;;16.84;100.00
12146;BME280;6136;47.032;15.398;2023-05-23T05:49:35;97173.66;;;17.02;100.00
12146;BME280;6136;47.032;15.398;2023-05-23T05:52:04;97176.28;;;17.21;100.00
12146;BME280;6136;47.032;15.398;2023-05-23T05:54:33;97172.88;;;17.29;100.00
12146;BME280;6136;47.032;15.398;2023-05-23T05:57:03;97168.31;;;17.39;100.00
12146;BME280;6136;47.032;15.398;2023-05-23T05:59:31;97166.84;;;17.54;100.00
12146;BME280;6136;47.032;15.398;2023-05-23T06:02:00;97167.47;;;17.75;100.00
12146;BME280;6136;47.032;15.398;2023-05-23T06:04:28;97160.06;;;17.87;100.00
12146;BME280;6136;47.032;15.398;2023-05-23T06:06:57;97169.41;;;18.01;100.00
12146;BME280;6136;47.032;15.398;2023-05-23T06:09:25;97165.84;;;18.10;100.00
12146;BME280;6136;47.032;15.398;2023-05-23T06:11:53;97160.78;;;18.24;100.00
12146;BME280;6136;47.032;15.398;2023-05-23T06:14:23;97165.03;;;18.45;100.00
12146;BME280;6136;47.032;15.398;2023-05-23T06:16:52;97162.03;;;18.66;100.00
12146;BME280;6136;47.032;15.398;2023-05-23T06:19:20;97159.31;;;18.83;100.00
12146;BME280;6136;47.032;15.398;2023-05-23T06:21:49;97163.81;;;19.00;100.00
12146;BME280;6136;47.032;15.398;2023-05-23T06:24:19;97161.69;;;19.12;100.00
12146;BME280;6136;47.032;15.398;2023-05-23T06:26:47;97156.06;;;19.23;98.31
12146;BME280;6136;47.032;15.398;2023-05-23T06:29:15;97163.22;;;19.41;98.45
12146;BME280;6136;47.032;15.398;2023-05-23T06:31:45;97157.75;;;19.50;98.43
12146;BME280;6136;47.032;15.398;2023-05-23T06:34:13;97156.97;;;19.66;98.41
12146;BME280;6136;47.032;15.398;2023-05-23T06:36:41;97156.88;;;19.84;99.73
12146;BME280;6136;47.032;15.398;2023-05-23T06:39:09;97153.22;;;20.01;95.38
12146;BME280;6136;47.032;15.398;2023-05-23T06:41:38;97160.31;;;20.10;93.95
12146;BME280;6136;47.032;15.398;2023-05-23T06:44:06;97160.34;;;20.26;94.95
12146;BME280;6136;47.032;15.398;2023-05-23T06:46:39;97162.75;;;20.45;93.52
12146;BME280;6136;47.032;15.398;2023-05-23T06:49:09;97157.75;;;20.59;93.82
12146;BME280;6136;47.032;15.398;2023-05-23T06:51:43;97154.00;;;20.68;92.02
12146;BME280;6136;47.032;15.398;2023-05-23T06:54:11;97156.53;;;20.93;93.91
12146;BME280;6136;47.032;15.398;2023-05-23T06:56:40;97146.22;;;21.13;89.23
12146;BME280;6136;47.032;15.398;2023-05-23T06:59:08;97147.41;;;21.27;85.35
12146;BME280;6136;47.032;15.398;2023-05-23T07:01:37;97147.53;;;21.42;87.82
12146;BME280;6136;47.032;15.398;2023-05-23T07:04:06;97148.84;;;21.62;84.11
12146;BME280;6136;47.032;15.398;2023-05-23T07:06:35;97137.63;;;21.81;80.81
12146;BME280;6136;47.032;15.398;2023-05-23T07:09:06;97150.06;;;21.90;81.95
12146;BME280;6136;47.032;15.398;2023-05-23T07:11:35;97146.97;;;22.01;80.80
12146;BME280;6136;47.032;15.398;2023-05-23T07:14:05;97144.19;;;22.18;81.30
12146;BME280;6136;47.032;15.398;2023-05-23T07:16:43;97144.59;;;22.37;77.63
12146;BME280;6136;47.032;15.398;2023-05-23T07:19:11;97136.34;;;22.54;75.40
12146;BME280;6136;47.032;15.398;2023-05-23T07:21:47;97135.53;;;22.76;78.16
12146;BME280;6136;47.032;15.398;2023-05-23T07:24:17;97124.97;;;22.89;71.66
12146;BME280;6136;47.032;15.398;2023-05-23T07:26:46;97123.47;;;23.01;72.78
12146;BME280;6136;47.032;15.398;2023-05-23T07:29:14;97138.22;;;23.13;72.94
12146;BME280;6136;47.032;15.398;2023-05-23T07:31:45;97130.13;;;23.28;69.94
12146;BME280;6136;47.032;15.398;2023-05-23T07:34:13;97130.56;;;23.54;73.67
12146;BME280;6136;47.032;15.398;2023-05-23T07:36:55;97121.31;;;23.78;69.46
12146;BME280;6136;47.032;15.398;2023-05-23T07:39:26;97125.41;;;24.10;66.63
12146;BME280;6136;47.032;15.398;2023-05-23T07:41:56;97119.81;;;24.26;66.83
12146;BME280;6136;47.032;15.398;2023-05-23T07:44:25;97118.66;;;24.35;67.25
12146;BME280;6136;47.032;15.398;2023-05-23T07:46:53;97116.44;;;24.24;69.09
12146;BME280;6136;47.032;15.398;2023-05-23T07:49:23;97108.06;;;24.41;68.39
12146;BME280;6136;47.032;15.398;2023-05-23T07:51:52;97116.91;;;24.49;68.06
12146;BME280;6136;47.032;15.398;2023-05-23T07:54:22;97116.06;;;24.70;67.38
12146;BME280;6136;47.032;15.398;2023-05-23T07:56:55;97104.44;;;24.76;66.36
12146;BME280;6136;47.032;15.398;2023-05-23T07:59:24;97103.59;;;24.75;70.38
12146;BME280;6136;47.032;15.398;2023-05-23T08:01:53;97104.09;;;25.07;68.48
12146;BME280;6136;47.032;15.398;2023-05-23T08:04:23;97104.72;;;25.37;66.39
12146;BME280;6136;47.032;15.398;2023-05-23T08:06:53;97101.75;;;25.60;65.10
12146;BME280;6136;47.032;15.398;2023-05-23T08:09:29;97095.97;;;25.69;66.75
12146;BME280;6136;47.032;15.398;2023-05-23T08:11:58;97095.47;;;26.00;64.17
12146;BME280;6136;47.032;15.398;2023-05-23T08:14:28;97096.94;;;26.09;63.54
12146;BME280;6136;47.032;15.398;2023-05-23T08:17:42;97093.94;;;26.45;62.68
12146;BME280;6136;47.032;15.398;2023-05-23T08:20:11;97099.59;;;26.63;57.82
12146;BME280;6136;47.032;15.398;2023-05-23T08:22:39;97092.91;;;26.66;60.23
12146;BME280;6136;47.032;15.398;2023-05-23T08:25:10;97097.13;;;26.82;59.12
12146;BME280;6136;47.032;15.398;2023-05-23T08:27:39;97092.53;;;27.02;60.28
12146;BME280;6136;47.032;15.398;2023-05-23T08:30:30;97085.63;;;27.19;56.33
12146;BME280;6136;47.032;15.398;2023-05-23T08:33:00;97081.22;;;27.12;57.41
12146;BME280;6136;47.032;15.398;2023-05-23T08:35:31;97084.69;;;27.52;54.43
12146;BME280;6136;47.032;15.398;2023-05-23T08:38:06;97081.97;;;27.65;53.83
12146;BME280;6136;47.032;15.398;2023-05-23T08:40:41;97081.91;;;27.85;54.63
12146;BME280;6136;47.032;15.398;2023-05-23T08:43:13;97076.78;;;28.08;52.14
12146;BME280;6136;47.032;15.398;2023-05-23T08:45:41;97078.66;;;28.07;52.46
12146;BME280;6136;47.032;15.398;2023-05-23T08:48:12;97083.06;;;28.15;50.73
12146;BME280;6136;47.032;15.398;2023-05-23T08:50:45;97079.25;;;28.09;50.75
12146;BME280;6136;47.032;15.398;2023-05-23T08:53:17;97075.59;;;28.35;50.93
12146;BME280;6136;47.032;15.398;2023-05-23T08:55:53;97080.56;;;28.76;48.74
12146;BME280;6136;47.032;15.398;2023-05-23T08:58:29;97078.88;;;28.75;47.92
12146;BME280;6136;47.032;15.398;2023-05-23T09:01:01;97074.66;;;28.48;50.14
12146;BME280;6136;47.032;15.398;2023-05-23T09:03:30;97074.75;;;28.66;50.30
12146;BME280;6136;47.032;15.398;2023-05-23T09:06:28;97070.47;;;28.77;48.17
12146;BME280;6136;47.032;15.398;2023-05-23T09:08:57;97069.78;;;28.88;49.64
12146;BME280;6136;47.032;15.398;2023-05-23T09:11:27;97068.41;;;29.22;47.61
12146;BME280;6136;47.032;15.398;2023-05-23T09:13:56;97058.16;;;29.60;44.57
12146;BME280;6136;47.032;15.398;2023-05-23T09:16:31;97050.94;;;29.84;45.20
12146;BME280;6136;47.032;15.398;2023-05-23T09:19:09;97045.66;;;29.71;48.13
12146;BME280;6136;47.032;15.398;2023-05-23T09:21:42;97048.69;;;29.99;42.82
12146;BME280;6136;47.032;15.398;2023-05-23T09:24:15;97030.84;;;29.79;43.53
12146;BME280;6136;47.032;15.398;2023-05-23T09:26:47;97028.78;;;29.74;44.48
12146;BME280;6136;47.032;15.398;2023-05-23T09:29:19;97040.41;;;30.18;43.27
12146;BME280;6136;47.032;15.398;2023-05-23T09:31:47;97040.19;;;30.19;45.30
12146;BME280;6136;47.032;15.398;2023-05-23T09:34:15;97042.06;;;30.48;44.12
12146;BME280;6136;47.032;15.398;2023-05-23T09:36:45;97037.41;;;30.79;41.58
12146;BME280;6136;47.032;15.398;2023-05-23T09:39:14;97033.03;;;31.36;39.23
12146;BME280;6136;47.032;15.398;2023-05-23T09:41:42;97027.56;;;31.36;37.76
12146;BME280;6136;47.032;15.398;2023-05-23T09:44:21;97025.28;;;31.45;37.14
12146;BME280;6136;47.032;15.398;2023-05-23T09:46:50;97016.25;;;31.33;38.60
12146;BME280;6136;47.032;15.398;2023-05-23T09:49:20;97013.16;;;31.64;37.94
12146;BME280;6136;47.032;15.398;2023-05-23T09:51:56;97019.31;;;31.71;38.17
12146;BME280;6136;47.032;15.398;2023-05-23T09:54:24;97012.19;;;31.00;41.29
12146;BME280;6136;47.032;15.398;2023-05-23T09:56:53;97008.88;;;31.33;38.22
12146;BME280;6136;47.032;15.398;2023-05-23T09:59:27;97013.34;;;31.74;36.61
12146;BME280;6136;47.032;15.398;2023-05-23T10:01:56;97010.16;;;31.54;38.04
12146;BME280;6136;47.032;15.398;2023-05-23T10:04:33;97003.06;;;31.81;37.69
12146;BME280;6136;47.032;15.398;2023-05-23T10:07:06;97007.25;;;32.12;35.92
12146;BME280;6136;47.032;15.398;2023-05-23T10:09:38;97001.44;;;32.37;36.28
12146;BME280;6136;47.032;15.398;2023-05-23T10:12:39;96996.22;;;31.95;35.92
12146;BME280;6136;47.032;15.398;2023-05-23T10:15:12;96984.72;;;31.30;36.83
12146;BME280;6136;47.032;15.398;2023-05-23T10:18:05;96992.41;;;31.45;36.59
12146;BME280;6136;47.032;15.398;2023-05-23T10:20:35;96996.00;;;30.87;36.96
12146;BME280;6136;47.032;15.398;2023-05-23T10:23:03;96995.94;;;30.10;39.33
12146;BME280;6136;47.032;15.398;2023-05-23T10:25:32;96984.38;;;29.97;39.18
12146;BME280;6136;47.032;15.398;2023-05-23T10:28:03;96977.53;;;29.88;39.81
12146;BME280;6136;47.032;15.398;2023-05-23T10:30:33;96975.56;;;29.95;38.66
12146;BME280;6136;47.032;15.398;2023-05-23T10:33:03;96974.66;;;30.01;38.97
12146;BME280;6136;47.032;15.398;2023-05-23T10:35:40;96968.88;;;30.51;39.84
12146;BME280;6136;47.032;15.398;2023-05-23T10:38:19;96959.59;;;31.21;39.03
12146;BME280;6136;47.032;15.398;2023-05-23T10:40:53;96952.91;;;31.29;36.56
12146;BME280;6136;47.032;15.398;2023-05-23T10:43:27;96950.91;;;31.76;36.41
12146;BME280;6136;47.032;15.398;2023-05-23T10:45:58;96946.66;;;32.42;35.22
12146;BME280;6136;47.032;15.398;2023-05-23T10:48:32;96942.00;;;32.93;33.99
12146;BME280;6136;47.032;15.398;2023-05-23T10:51:02;96928.22;;;33.26;33.17
12146;BME280;6136;47.032;15.398;2023-05-23T10:53:34;96935.78;;;33.19;32.59
12146;BME280;6136;47.032;15.398;2023-05-23T10:56:06;96935.78;;;32.30;33.71
12146;BME280;6136;47.032;15.398;2023-05-23T10:58:36;96928.91;;;31.71;34.67
12146;BME280;6136;47.032;15.398;2023-05-23T11:01:07;96924.88;;;31.50;34.83
12146;BME280;6136;47.032;15.398;2023-05-23T11:03:48;96933.78;;;30.94;35.88
12146;BME280;6136;47.032;15.398;2023-05-23T11:06:28;96940.16;;;30.41;36.14
12146;BME280;6136;47.032;15.398;2023-05-23T11:09:02;96956.97;;;29.55;41.08
12146;BME280;6136;47.032;15.398;2023-05-23T11:11:53;96949.81;;;28.56;45.13
12146;BME280;6136;47.032;15.398;2023-05-23T11:14:31;96947.00;;;27.82;55.01
12146;BME280;6136;47.032;15.398;2023-05-23T11:17:15;96949.47;;;26.81;55.33
12146;BME280;6136;47.032;15.398;2023-05-23T11:19:58;96955.03;;;25.74;61.82
12146;BME280;6136;47.032;15.398;2023-05-23T11:22:27;96960.59;;;25.53;66.37
12146;BME280;6136;47.032;15.398;2023-05-23T11:24:57;96957.72;;;25.61;65.99
12146;BME280;6136;47.032;15.398;2023-05-23T11:27:27;96946.31;;;25.25;63.85
12146;BME280;6136;47.032;15.398;2023-05-23T11:30:00;96942.25;;;25.07;65.30
12146;BME280;6136;47.032;15.398;2023-05-23T11:32:31;96931.25;;;24.81;69.86
12146;BME280;6136;47.032;15.398;2023-05-23T11:35:00;96923.75;;;25.24;67.15
12146;BME280;6136;47.032;15.398;2023-05-23T11:37:29;96921.28;;;25.36;69.15
12146;BME280;6136;47.032;15.398;2023-05-23T11:39:58;96911.41;;;25.69;67.58
12146;BME280;6136;47.032;15.398;2023-05-23T11:42:27;96925.88;;;26.42;60.67
12146;BME280;6136;47.032;15.398;2023-05-23T11:44:56;96942.38;;;26.67;53.52
12146;BME280;6136;47.032;15.398;2023-05-23T11:47:24;96962.44;;;26.46;54.11
12146;BME280;6136;47.032;15.398;2023-05-23T11:49:53;96991.91;;;26.23;52.47
12146;BME280;6136;47.032;15.398;2023-05-23T11:52:22;97064.28;;;25.89;59.92
12146;BME280;6136;47.032;15.398;2023-05-23T11:54:50;97113.47;;;24.62;55.43
12146;BME280;6136;47.032;15.398;2023-05-23T11:57:21;97108.16;;;23.60;62.39
12146;BME280;6136;47.032;15.398;2023-05-23T11:59:50;97110.25;;;22.46;65.29
12146;BME280;6136;47.032;15.398;2023-05-23T12:02:20;97101.00;;;21.56;68.41
12146;BME280;6136;47.032;15.398;2023-05-23T12:04:48;97126.69;;;21.27;69.14
12146;BME280;6136;47.032;15.398;2023-05-23T12:07:19;97152.16;;;21.01;71.80
12146;BME280;6136;47.032;15.398;2023-05-23T12:09:48;97189.69;;;20.78;72.31
12146;BME280;6136;47.032;15.398;2023-05-23T12:12:16;97206.31;;;20.41;73.78
12146;BME280;6136;47.032;15.398;2023-05-23T12:14:46;97229.81;;;20.23;76.75
12146;BME280;6136;47.032;15.398;2023-05-23T12:17:14;97249.50;;;19.89;84.93
12146;BME280;6136;47.032;15.398;2023-05-23T12:19:44;97250.28;;;18.86;100.00
12146;BME280;6136;47.032;15.398;2023-05-23T12:22:13;97255.38;;;18.89;100.00
12146;BME280;6136;47.032;15.398;2023-05-23T12:24:46;97258.72;;;18.56;100.00
12146;BME280;6136;47.032;15.398;2023-05-23T12:27:15;97260.97;;;18.33;100.00
12146;BME280;6136;47.032;15.398;2023-05-23T12:29:49;97267.09;;;18.26;100.00
12146;BME280;6136;47.032;15.398;2023-05-23T12:32:18;97267.69;;;18.19;100.00
12146;BME280;6136;47.032;15.398;2023-05-23T12:34:48;97268.84;;;17.90;100.00
12146;BME280;6136;47.032;15.398;2023-05-23T12:37:16;97273.03;;;17.55;100.00
12146;BME280;6136;47.032;15.398;2023-05-23T12:39:57;97263.19;;;17.46;100.00
12146;BME280;6136;47.032;15.398;2023-05-23T12:42:25;97262.22;;;17.37;100.00
12146;BME280;6136;47.032;15.398;2023-05-23T12:44:56;97254.75;;;17.31;100.00
12146;BME280;6136;47.032;15.398;2023-05-23T12:47:25;97243.34;;;17.29;100.00
12146;BME280;6136;47.032;15.398;2023-05-23T12:49:53;97252.09;;;17.31;100.00
12146;BME280;6136;47.032;15.398;2023-05-23T12:52:22;97246.59;;;17.33;100.00
12146;BME280;6136;47.032;15.398;2023-05-23T12:54:50;97249.00;;;17.26;100.00
12146;BME280;6136;47.032;15.398;2023-05-23T12:57:20;97256.34;;;17.15;100.00
12146;BME280;6136;47.032;15.398;2023-05-23T12:59:48;97263.84;;;17.11;100.00
12146;BME280;6136;47.032;15.398;2023-05-23T13:02:16;97266.78;;;17.08;100.00
12146;BME280;6136;47.032;15.398;2023-05-23T13:04:45;97261.44;;;17.08;100.00
12146;BME280;6136;47.032;15.398;2023-05-23T13:07:13;97248.16;;;17.16;100.00
12146;BME280;6136;47.032;15.398;2023-05-23T13:09:41;97236.16;;;17.20;100.00
12146;BME280;6136;47.032;15.398;2023-05-23T13:12:10;97230.94;;;17.28;100.00
12146;BME280;6136;47.032;15.398;2023-05-23T13:14:41;97220.44;;;16.98;100.00
12146;BME280;6136;47.032;15.398;2023-05-23T13:17:09;97218.03;;;17.04;100.00